Time;durP1;ratioP1;P1;durP2;ratioP2;P2;SDS_P1;SDS_P2;PMS_P1;PMS_P2;Temp;Humidity;BMP_temperature;BMP_pressure;BME280_temperature;BME280_humidity;BME280_pressure;Samples;Min_cycle;Max_cycle;Signal;HPM_P1;HPM_P2
2023/09/11 00:01:42;;;;;;;29.75;21.33;;;18.50;99.90;;;;;;5026257;28;20681;-65
2023/09/11 00:04:09;;;;;;;28.70;20.83;;;18.50;99.90;;;;;;5031266;28;20685;-65
2023/09/11 00:06:35;;;;;;;25.08;20.27;;;18.40;99.90;;;;;;5031191;28;20208;-65
2023/09/11 00:09:03;;;;;;;30.98;21.65;;;18.40;99.90;;;;;;5038465;28;20201;-65
2023/09/11 00:11:30;;;;;;;30.45;21.52;;;18.40;99.90;;;;;;5006422;28;20232;-65
2023/09/11 00:13:58;;;;;;;29.33;22.30;;;18.40;99.90;;;;;;5028425;28;20201;-65
2023/09/11 00:16:25;;;;;;;29.17;22.55;;;18.50;99.90;;;;;;5032791;28;20201;-65
2023/09/11 00:18:56;;;;;;;27.45;21.90;;;18.50;99.90;;;;;;5030188;28;20205;-65
2023/09/11 00:21:22;;;;;;;32.03;23.20;;;18.60;99.90;;;;;;5042738;28;20197;-65
2023/09/11 00:23:49;;;;;;;31.13;22.77;;;18.60;99.90;;;;;;5033200;28;20193;-65
2023/09/11 00:26:16;;;;;;;32.45;22.75;;;18.60;99.90;;;;;;5044551;28;20198;-65
2023/09/11 00:28:43;;;;;;;34.25;24.13;;;18.60;99.90;;;;;;5005676;28;20370;-66
2023/09/11 00:31:11;;;;;;;34.83;23.77;;;18.70;99.90;;;;;;5041545;28;20224;-66
2023/09/11 00:33:38;;;;;;;33.15;23.50;;;18.60;99.90;;;;;;5026912;28;20679;-66
2023/09/11 00:36:05;;;;;;;31.00;22.33;;;18.50;99.90;;;;;;5041824;28;20220;-66
2023/09/11 00:38:32;;;;;;;34.03;23.40;;;18.50;99.90;;;;;;5027305;28;20225;-65
2023/09/11 00:40:59;;;;;;;31.02;23.38;;;18.60;99.90;;;;;;5038243;28;20206;-65
2023/09/11 00:43:26;;;;;;;30.10;22.08;;;;;;;;;;5004130;28;20260;-65
2023/09/11 00:45:55;;;;;;;33.60;22.20;;;18.30;99.90;;;;;;5033212;28;20197;-66
2023/09/11 00:48:23;;;;;;;32.92;22.15;;;18.20;99.90;;;;;;5030280;28;20317;-65
2023/09/11 00:50:50;;;;;;;31.60;23.10;;;18.00;99.90;;;;;;5038602;28;20739;-66
2023/09/11 00:53:18;;;;;;;33.58;22.85;;;18.20;99.90;;;;;;5031568;28;20807;-66
2023/09/11 00:55:45;;;;;;;30.05;22.38;;;18.10;99.90;;;;;;5036240;28;20208;-66
2023/09/11 00:58:12;;;;;;;35.58;22.02;;;18.00;99.90;;;;;;5004744;28;20243;-66
2023/09/11 01:00:39;;;;;;;33.60;22.77;;;18.10;99.90;;;;;;5039360;28;20206;-65
2023/09/11 01:03:06;;;;;;;35.47;22.65;;;18.00;99.90;;;;;;5038586;28;20194;-66
2023/09/11 01:05:36;;;;;;;33.47;22.83;;;18.00;99.90;;;;;;5026696;28;20209;-65
2023/09/11 01:08:03;;;;;;;31.75;22.05;;;18.00;99.90;;;;;;5033713;28;20196;-66
2023/09/11 01:10:30;;;;;;;34.30;24.52;;;18.00;99.90;;;;;;5022461;28;20204;-66
2023/09/11 01:12:57;;;;;;;35.92;23.33;;;17.90;99.90;;;;;;5005884;28;20225;-66
2023/09/11 01:15:27;;;;;;;35.42;24.55;;;17.90;99.90;;;;;;5029445;28;20707;-65
2023/09/11 01:18:02;;;;;;;32.25;23.40;;;17.90;99.90;;;;;;5037115;28;20228;-66
2023/09/11 01:20:53;;;;;;;34.90;23.25;;;18.00;99.90;;;;;;5033197;28;20920;-65
2023/09/11 01:24:08;;;;;;;34.67;23.73;;;17.90;99.90;;;;;;5033583;28;20229;-66
2023/09/11 01:27:16;;;;;;;33.50;24.00;;;17.90;99.90;;;;;;4996697;28;20579;-65
2023/09/11 01:29:46;;;;;;;33.55;24.17;;;17.90;99.90;;;;;;4961783;28;20224;-65
2023/09/11 01:32:17;;;;;;;40.08;25.98;;;17.90;99.90;;;;;;5036700;28;20223;-66
2023/09/11 01:34:44;;;;;;;33.92;24.80;;;17.90;99.90;;;;;;5040203;28;20216;-66
2023/09/11 01:37:11;;;;;;;38.13;24.77;;;;;;;;;;5029423;28;20235;-66
2023/09/11 01:39:38;;;;;;;36.15;25.50;;;17.80;99.90;;;;;;5017587;28;20710;-65
2023/09/11 01:42:09;;;;;;;40.08;27.10;;;17.80;99.90;;;;;;5035269;28;20200;-66
2023/09/11 01:44:43;;;;;;;38.85;26.55;;;17.80;99.90;;;;;;4990820;28;21810;-66
2023/09/11 01:47:13;;;;;;;38.97;26.13;;;17.60;99.90;;;;;;5034429;28;20197;-66
2023/09/11 01:49:41;;;;;;;42.67;27.17;;;17.80;99.90;;;;;;5039279;28;20197;-65
2023/09/11 01:52:10;;;;;;;40.38;26.48;;;17.70;99.90;;;;;;5029097;28;20224;-66
2023/09/11 01:54:37;;;;;;;38.03;26.92;;;17.80;99.90;;;;;;5040963;28;20235;-65
2023/09/11 01:57:05;;;;;;;38.45;26.08;;;17.70;99.90;;;;;;5019904;28;20226;-65
2023/09/11 01:59:32;;;;;;;38.92;27.33;;;17.80;99.90;;;;;;5003302;28;20840;-66
2023/09/11 02:01:59;;;;;;;38.60;26.13;;;17.70;99.90;;;;;;5040201;28;20196;-66
2023/09/11 02:04:27;;;;;;;43.10;27.88;;;17.80;99.90;;;;;;5031618;28;20984;-65
2023/09/11 02:06:54;;;;;;;39.70;27.05;;;17.70;99.90;;;;;;5034228;28;20205;-65
2023/09/11 02:09:21;;;;;;;41.30;26.60;;;17.70;99.90;;;;;;5039311;28;20203;-65
2023/09/11 02:11:47;;;;;;;35.58;26.02;;;17.70;99.90;;;;;;5031748;28;20236;-65
2023/09/11 02:14:14;;;;;;;39.15;26.88;;;19.70;99.90;;;;;;5013001;28;20211;-66
2023/09/11 02:16:41;;;;;;;36.30;26.20;;;17.70;99.90;;;;;;5030957;28;20670;-65
2023/09/11 02:19:08;;;;;;;34.83;24.65;;;17.80;99.90;;;;;;5032360;28;20225;-65
2023/09/11 02:21:36;;;;;;;35.25;26.00;;;17.60;99.90;;;;;;5029707;28;20204;-66
2023/09/11 02:24:03;;;;;;;39.20;26.60;;;17.70;99.90;;;;;;5044229;28;20666;-66
2023/09/11 02:26:29;;;;;;;36.10;25.85;;;17.80;99.90;;;;;;5028008;28;20230;-66
2023/09/11 02:28:59;;;;;;;37.38;26.30;;;17.70;99.90;;;;;;5046803;28;20212;-66
2023/09/11 02:31:26;;;;;;;37.90;24.98;;;17.70;99.90;;;;;;5002331;28;20213;-63
2023/09/11 02:33:53;;;;;;;32.42;25.05;;;17.60;99.90;;;;;;5031547;28;20209;-64
2023/09/11 02:36:20;;;;;;;38.05;24.65;;;17.70;99.90;;;;;;5037811;28;20685;-66
2023/09/11 02:38:48;;;;;;;38.30;26.60;;;17.70;99.90;;;;;;5030498;28;20225;-65
2023/09/11 02:41:15;;;;;;;38.10;27.83;;;17.70;99.90;;;;;;5030629;28;20201;-66
2023/09/11 02:43:41;;;;;;;36.25;25.75;;;17.70;99.90;;;;;;5040731;28;20704;-66
2023/09/11 02:46:08;;;;;;;35.95;25.65;;;17.70;99.90;;;;;;5017885;28;20201;-66
2023/09/11 02:48:35;;;;;;;37.53;26.23;;;17.70;99.90;;;;;;5015916;28;20942;-66
2023/09/11 02:51:02;;;;;;;37.55;26.55;;;17.60;99.90;;;;;;5040956;28;20225;-65
2023/09/11 02:53:28;;;;;;;41.45;26.65;;;17.50;99.90;;;;;;5028666;28;20209;-66
2023/09/11 02:55:57;;;;;;;37.40;26.30;;;17.50;99.90;;;;;;5035434;28;20192;-66
2023/09/11 02:58:23;;;;;;;35.30;26.23;;;17.50;99.90;;;;;;5021930;28;20714;-66
2023/09/11 03:00:50;;;;;;;41.67;26.42;;;17.50;99.90;;;;;;5037254;28;20212;-66
2023/09/11 03:03:17;;;;;;;36.28;26.42;;;17.60;99.90;;;;;;4999305;28;20209;-66
2023/09/11 03:05:44;;;;;;;32.80;25.65;;;17.50;99.90;;;;;;5036081;28;20193;-66
2023/09/11 03:08:11;;;;;;;36.78;25.83;;;17.60;99.90;;;;;;5035775;28;20196;-66
2023/09/11 03:10:38;;;;;;;34.70;24.65;;;17.60;99.90;;;;;;5027391;28;20463;-66
2023/09/11 03:13:06;;;;;;;35.08;25.38;;;17.50;99.90;;;;;;5030483;28;20212;-66
2023/09/11 03:15:33;;;;;;;34.75;25.27;;;17.50;99.90;;;;;;5031293;28;20200;-66
2023/09/11 03:18:00;;;;;;;36.70;25.83;;;17.50;99.90;;;;;;5003821;28;20260;-65
2023/09/11 03:20:27;;;;;;;35.03;25.10;;;17.50;99.90;;;;;;5033426;28;20203;-66
2023/09/11 03:22:54;;;;;;;39.08;26.10;;;17.50;99.90;;;;;;5033968;28;20200;-65
2023/09/11 03:25:21;;;;;;;35.00;24.58;;;17.50;99.90;;;;;;5025203;28;21083;-66
2023/09/11 03:27:48;;;;;;;35.13;26.30;;;17.50;99.90;;;;;;5026866;28;20200;-63
2023/09/11 03:30:16;;;;;;;33.55;24.98;;;17.50;99.90;;;;;;5028906;28;20221;-66
2023/09/11 03:32:43;;;;;;;34.40;25.65;;;17.50;99.90;;;;;;5033475;28;20203;-66
2023/09/11 03:35:10;;;;;;;34.47;25.70;;;17.50;99.90;;;;;;5002114;28;20205;-66
2023/09/11 03:37:37;;;;;;;37.85;26.13;;;16.30;99.90;;;;;;5024530;28;20953;-66
2023/09/11 03:40:07;;;;;;;35.38;25.20;;;17.60;99.90;;;;;;5030434;28;20233;-65
2023/09/11 03:42:32;;;;;;;34.35;25.42;;;17.60;99.90;;;;;;5022043;28;20232;-66
2023/09/11 03:45:00;;;;;;;38.60;25.23;;;17.60;99.90;;;;;;5020844;28;20224;-66
2023/09/11 03:47:28;;;;;;;36.55;24.42;;;17.60;99.90;;;;;;5025307;28;20288;-66
2023/09/11 03:49:54;;;;;;;32.80;23.77;;;17.70;99.90;;;;;;4994637;28;20225;-66
2023/09/11 03:52:21;;;;;;;34.67;24.42;;;17.70;99.90;;;;;;5010886;28;20220;-65
2023/09/11 03:54:48;;;;;;;35.53;23.40;;;17.60;99.90;;;;;;5033621;28;20563;-65
2023/09/11 03:57:15;;;;;;;29.48;23.83;;;17.70;99.90;;;;;;5022903;28;20208;-66
2023/09/11 03:59:42;;;;;;;31.88;23.85;;;17.70;99.90;;;;;;5021989;28;20933;-65
2023/09/11 04:02:08;;;;;;;37.97;25.85;;;17.70;99.90;;;;;;4994777;28;20965;-66
2023/09/11 04:04:37;;;;;;;33.10;23.90;;;17.90;99.90;;;;;;5017797;28;20200;-66
2023/09/11 04:07:04;;;;;;;33.10;24.35;;;17.90;99.90;;;;;;4974374;28;20687;-66
2023/09/11 04:09:32;;;;;;;37.08;24.45;;;17.90;99.90;;;;;;5034579;28;20239;-66
2023/09/11 04:11:59;;;;;;;30.05;22.42;;;17.80;99.90;;;;;;5010389;28;20201;-66
2023/09/11 04:14:26;;;;;;;29.73;22.48;;;17.80;99.90;;;;;;5024830;28;20209;-65
2023/09/11 04:16:52;;;;;;;32.45;22.92;;;17.80;99.90;;;;;;5038365;28;20196;-65
2023/09/11 04:19:19;;;;;;;30.92;23.15;;;17.70;99.90;;;;;;5026204;28;20233;-66
2023/09/11 04:21:47;;;;;;;31.60;22.48;;;17.90;99.90;;;;;;4998217;28;20204;-66
2023/09/11 04:24:14;;;;;;;31.02;23.05;;;17.70;99.90;;;;;;5028689;28;20224;-66
2023/09/11 04:26:41;;;;;;;30.00;22.85;;;17.70;99.90;;;;;;5027778;28;20221;-65
2023/09/11 04:29:10;;;;;;;27.90;21.73;;;17.70;99.90;;;;;;5019079;28;20440;-65
2023/09/11 04:31:37;;;;;;;30.60;22.70;;;17.70;99.90;;;;;;5017306;28;20338;-66
2023/09/11 04:34:04;;;;;;;31.42;22.38;;;17.70;99.90;;;;;;5027857;28;20641;-66
2023/09/11 04:36:31;;;;;;;28.23;20.98;;;17.70;99.90;;;;;;4976355;28;20686;-66
2023/09/11 04:38:59;;;;;;;32.63;23.85;;;17.60;99.90;;;;;;5013361;28;20244;-66
2023/09/11 04:41:26;;;;;;;32.30;22.08;;;17.60;99.90;;;;;;5013883;28;20217;-66
2023/09/11 04:43:53;;;;;;;31.25;21.55;;;17.50;99.90;;;;;;5025194;28;20743;-66
2023/09/11 04:46:20;;;;;;;28.45;20.75;;;14.30;99.90;;;;;;5003810;28;20597;-65
2023/09/11 04:48:47;;;;;;;29.00;20.83;;;17.50;99.90;;;;;;5013610;28;20228;-66
2023/09/11 04:51:13;;;;;;;27.33;21.00;;;17.50;99.90;;;;;;5008480;28;20756;-66
2023/09/11 04:53:40;;;;;;;26.23;20.80;;;17.50;99.90;;;;;;4984240;28;20992;-65
2023/09/11 04:56:09;;;;;;;31.33;20.45;;;17.50;99.90;;;;;;5030543;28;20198;-65
2023/09/11 04:58:36;;;;;;;30.70;21.42;;;17.50;99.90;;;;;;5027717;28;20546;-66
2023/09/11 05:01:02;;;;;;;28.13;21.50;;;17.40;99.90;;;;;;5022133;28;20220;-65
2023/09/11 05:03:29;;;;;;;25.83;20.23;;;17.50;99.90;;;;;;5032485;28;21094;-65
2023/09/11 05:05:56;;;;;;;29.60;21.70;;;17.40;99.90;;;;;;5040122;28;20275;-65
2023/09/11 05:08:23;;;;;;;27.30;20.67;;;17.40;99.90;;;;;;4991240;28;20220;-65
2023/09/11 05:10:50;;;;;;;25.83;20.33;;;17.40;99.90;;;;;;5016865;28;20228;-66
2023/09/11 05:13:18;;;;;;;26.85;20.98;;;17.60;99.90;;;;;;5032469;28;20225;-65
2023/09/11 05:15:48;;;;;;;30.67;20.80;;;17.50;99.90;;;;;;5018537;28;20699;-65
2023/09/11 05:18:15;;;;;;;27.85;20.65;;;17.40;99.90;;;;;;5020253;28;20237;-65
2023/09/11 05:20:44;;;;;;;26.40;19.92;;;17.40;99.90;;;;;;5021526;28;20425;-65
2023/09/11 05:23:11;;;;;;;29.70;19.77;;;17.30;99.90;;;;;;5022390;28;20201;-65
2023/09/11 05:25:38;;;;;;;27.02;19.45;;;17.40;99.90;;;;;;4990526;28;20352;-66
2023/09/11 05:28:05;;;;;;;27.35;20.80;;;17.40;99.90;;;;;;5044495;28;20780;-65
2023/09/11 05:30:34;;;;;;;26.38;20.00;;;17.40;99.90;;;;;;5014417;28;20232;-66
2023/09/11 05:33:00;;;;;;;25.00;19.58;;;17.50;99.90;;;;;;5025409;28;20421;-65
2023/09/11 05:35:27;;;;;;;24.58;20.00;;;17.40;99.90;;;;;;5026650;28;20744;-65
2023/09/11 05:37:54;;;;;;;27.00;20.60;;;17.40;99.90;;;;;;5038086;28;20576;-65
2023/09/11 05:40:21;;;;;;;30.55;21.27;;;17.40;99.90;;;;;;5001737;28;20669;-65
2023/09/11 05:42:48;;;;;;;25.17;19.67;;;17.50;99.90;;;;;;5024615;28;20201;-65
2023/09/11 05:45:15;;;;;;;24.92;19.90;;;17.50;99.90;;;;;;5021478;28;20317;-66
2023/09/11 05:47:43;;;;;;;27.15;19.08;;;17.50;99.90;;;;;;5006710;28;20229;-65
2023/09/11 05:50:11;;;;;;;26.38;19.75;;;17.80;99.90;;;;;;5039069;28;20790;-65
2023/09/11 05:52:37;;;;;;;23.27;18.63;;;17.70;99.90;;;;;;5031510;28;20232;-65
2023/09/11 05:55:05;;;;;;;25.17;19.77;;;17.90;99.90;;;;;;5001603;28;20211;-66
2023/09/11 05:57:32;;;;;;;22.75;17.90;;;17.90;99.90;;;;;;5019347;28;20227;-66
2023/09/11 05:59:59;;;;;;;24.67;19.10;;;18.10;99.90;;;;;;5025261;28;20232;-65
2023/09/11 06:02:26;;;;;;;25.23;18.27;;;18.20;99.90;;;;;;5030316;28;20413;-65
2023/09/11 06:04:54;;;;;;;22.50;16.95;;;18.20;99.90;;;;;;5035392;28;20197;-66
2023/09/11 06:07:20;;;;;;;24.48;17.60;;;18.30;99.90;;;;;;5035853;28;20493;-66
2023/09/11 06:09:47;;;;;;;21.25;17.10;;;18.30;99.90;;;;;;5025893;28;20200;-65
2023/09/11 06:12:14;;;;;;;21.45;17.30;;;18.30;99.90;;;;;;4987124;28;20737;-66
2023/09/11 06:14:41;;;;;;;20.80;17.42;;;18.30;99.90;;;;;;5032975;28;20200;-66
2023/09/11 06:17:08;;;;;;;22.58;17.63;;;18.30;99.90;;;;;;5030329;28;20205;-66
2023/09/11 06:19:34;;;;;;;20.75;17.75;;;18.30;99.90;;;;;;5037670;28;20229;-65
2023/09/11 06:22:02;;;;;;;23.13;18.15;;;18.30;99.90;;;;;;5034938;28;20222;-66
2023/09/11 06:24:29;;;;;;;27.58;17.65;;;18.30;99.90;;;;;;5011364;28;20201;-66
2023/09/11 06:27:05;;;;;;;19.67;16.73;;;18.40;99.90;;;;;;5002810;28;20205;-66
2023/09/11 06:29:32;;;;;;;29.67;17.27;;;18.40;99.90;;;;;;5030172;28;20220;-66
2023/09/11 06:31:59;;;;;;;24.77;17.73;;;18.40;99.90;;;;;;5020314;28;20225;-66
2023/09/11 06:34:27;;;;;;;21.23;16.63;;;18.40;99.90;;;;;;5024912;28;20205;-66
2023/09/11 06:36:54;;;;;;;25.95;17.10;;;18.50;99.90;;;;;;5032866;28;20241;-66
2023/09/11 06:39:22;;;;;;;23.30;16.42;;;18.60;99.90;;;;;;5022776;28;20228;-65
2023/09/11 06:41:49;;;;;;;26.77;17.33;;;18.60;99.90;;;;;;5010167;28;20418;-66
2023/09/11 06:44:16;;;;;;;21.02;16.52;;;18.60;99.90;;;;;;5001682;28;20528;-65
2023/09/11 06:46:43;;;;;;;20.00;15.50;;;18.80;99.90;;;;;;5026426;28;20205;-65
2023/09/11 06:49:09;;;;;;;23.52;16.75;;;18.80;99.90;;;;;;5036314;28;20556;-65
2023/09/11 06:51:36;;;;;;;25.95;16.70;;;18.80;99.90;;;;;;5037663;28;20212;-65
2023/09/11 06:54:03;;;;;;;28.15;16.90;;;18.90;99.90;;;;;;5025488;28;20444;-66
2023/09/11 06:56:32;;;;;;;24.50;17.45;;;18.90;99.90;;;;;;5024375;28;20206;-65
2023/09/11 06:58:59;;;;;;;21.15;16.55;;;19.00;99.90;;;;;;4999244;28;20787;-65
2023/09/11 07:01:26;;;;;;;19.98;15.38;;;19.00;99.90;;;;;;5019061;28;20208;-65
2023/09/11 07:03:52;;;;;;;21.95;15.23;;;19.10;99.90;;;;;;5032503;28;20385;-65
2023/09/11 07:06:19;;;;;;;22.13;14.30;;;19.10;99.90;;;;;;5029494;28;20308;-65
2023/09/11 07:08:46;;;;;;;18.15;13.55;;;19.20;99.90;;;;;;5035457;28;20915;-66
2023/09/11 07:11:16;;;;;;;17.70;12.77;;;19.20;99.90;;;;;;5020234;28;20412;-65
2023/09/11 07:13:44;;;;;;;15.10;13.50;;;19.20;99.90;;;;;;4994510;28;20211;-66
2023/09/11 07:16:11;;;;;;;19.48;13.80;;;19.30;99.90;;;;;;5024951;28;20201;-66
2023/09/11 07:18:37;;;;;;;18.95;13.25;;;19.30;99.90;;;;;;5031385;28;20208;-65
2023/09/11 07:21:04;;;;;;;16.20;11.95;;;19.40;99.90;;;;;;5038350;28;20520;-65
2023/09/11 07:23:31;;;;;;;18.40;12.38;;;19.40;99.90;;;;;;5038641;28;20258;-66
2023/09/11 07:25:58;;;;;;;17.52;12.38;;;19.50;99.90;;;;;;5030516;28;20197;-65
2023/09/11 07:28:26;;;;;;;26.85;11.48;;;19.50;99.90;;;;;;5004997;28;20204;-66
2023/09/11 07:30:55;;;;;;;13.25;10.57;;;19.50;99.90;;;;;;5039125;28;20204;-66
2023/09/11 07:33:22;;;;;;;16.48;11.98;;;19.60;99.90;;;;;;5029980;28;20648;-66
2023/09/11 07:35:48;;;;;;;15.45;11.05;;;19.70;99.90;;;;;;5041036;28;20204;-65
2023/09/11 07:38:16;;;;;;;13.88;11.68;;;19.70;99.90;;;;;;5044169;28;20477;-65
2023/09/11 07:40:42;;;;;;;12.77;10.77;;;19.80;99.90;;;;;;5043023;28;20250;-66
2023/09/11 07:43:11;;;;;;;12.07;10.30;;;19.90;99.90;;;;;;5030630;28;20196;-65
2023/09/11 07:45:37;;;;;;;15.68;11.27;;;19.90;99.90;;;;;;5005062;28;20254;-65
2023/09/11 07:48:06;;;;;;;15.55;10.73;;;19.90;99.90;;;;;;5033275;28;20225;-66
2023/09/11 07:50:33;;;;;;;14.02;10.18;;;20.00;99.90;;;;;;5028917;28;20204;-65
2023/09/11 07:52:59;;;;;;;14.35;9.95;;;20.10;99.90;;;;;;5035753;28;20197;-66
2023/09/11 07:55:26;;;;;;;12.50;9.52;;;20.10;99.90;;;;;;5019914;28;20202;-65
2023/09/11 07:57:53;;;;;;;14.65;9.88;;;20.10;99.90;;;;;;5036004;28;20197;-64
2023/09/11 08:00:21;;;;;;;16.05;9.82;;;20.20;99.90;;;;;;4991970;28;20225;-63
2023/09/11 08:02:48;;;;;;;14.00;9.80;;;20.20;99.90;;;;;;5022976;28;20657;-64
2023/09/11 08:05:17;;;;;;;15.45;9.20;;;20.30;99.90;;;;;;5032672;28;20578;-64
2023/09/11 08:07:44;;;;;;;13.13;9.23;;;20.30;99.90;;;;;;5039550;28;20315;-64
2023/09/11 08:10:10;;;;;;;15.40;8.30;;;20.40;99.90;;;;;;5047860;28;20204;-64
2023/09/11 08:12:37;;;;;;;10.98;8.45;;;20.50;99.90;;;;;;5038293;28;20536;-64
2023/09/11 08:15:05;;;;;;;13.80;7.43;;;20.60;99.90;;;;;;5026037;28;20199;-64
2023/09/11 08:17:32;;;;;;;11.52;8.02;;;20.70;99.90;;;;;;4996142;28;20321;-64
2023/09/11 08:19:59;;;;;;;12.15;7.80;;;20.60;99.90;;;;;;5030634;28;20455;-64
2023/09/11 08:22:27;;;;;;;12.20;8.45;;;20.70;99.90;;;;;;5010217;28;20223;-64
2023/09/11 08:24:54;;;;;;;10.45;7.75;;;20.70;99.90;;;;;;5047871;28;20189;-64
2023/09/11 08:27:21;;;;;;;8.98;7.55;;;20.80;99.90;;;;;;5040020;28;20778;-64
2023/09/11 08:29:47;;;;;;;8.60;6.82;;;20.80;99.90;;;;;;5035766;28;20212;-64
2023/09/11 08:32:14;;;;;;;11.95;7.78;;;20.90;99.90;;;;;;5004525;28;20212;-64
2023/09/11 08:34:41;;;;;;;9.82;7.75;;;21.00;99.90;;;;;;5037432;28;20197;-64
2023/09/11 08:37:08;;;;;;;13.57;8.30;;;21.00;99.90;;;;;;5037119;28;20693;-64
2023/09/11 08:39:36;;;;;;;9.70;7.10;;;21.10;99.90;;;;;;5047861;28;20224;-64
2023/09/11 08:42:05;;;;;;;11.95;7.05;;;21.10;99.90;;;;;;5045224;28;20197;-65
2023/09/11 08:44:32;;;;;;;12.25;6.88;;;21.20;99.90;;;;;;5036028;28;20205;-65
2023/09/11 08:47:03;;;;;;;11.63;6.95;;;21.20;99.90;;;;;;5009161;28;20206;-65
2023/09/11 08:49:33;;;;;;;14.18;7.85;;;21.30;99.90;;;;;;5027630;28;20602;-65
2023/09/11 08:52:04;;;;;;;11.48;6.55;;;21.30;99.90;;;;;;5046640;28;20205;-65
2023/09/11 08:54:38;;;;;;;13.52;7.70;;;21.40;99.90;;;;;;5040678;28;20301;-65
2023/09/11 08:57:07;;;;;;;8.60;7.18;;;21.50;99.90;;;;;;5039722;28;20205;-65
2023/09/11 08:59:37;;;;;;;15.80;7.03;;;21.50;99.90;;;;;;5033932;28;20889;-65
2023/09/11 09:02:05;;;;;;;9.68;7.57;;;21.70;99.90;;;;;;4990006;28;20209;-65
2023/09/11 09:04:34;;;;;;;9.60;6.40;;;21.80;99.90;;;;;;5015636;28;20646;-64
2023/09/11 09:07:01;;;;;;;10.05;6.57;;;21.80;99.90;;;;;;5043419;28;20724;-65
2023/09/11 09:09:28;;;;;;;18.30;7.40;;;21.80;99.90;;;;;;5033919;28;20403;-65
2023/09/11 09:11:56;;;;;;;11.40;7.80;;;21.90;99.90;;;;;;5049133;28;20296;-65
2023/09/11 09:14:27;;;;;;;11.57;7.00;;;22.00;99.90;;;;;;5044606;28;20299;-65
2023/09/11 09:16:54;;;;;;;16.60;7.00;;;22.10;99.90;;;;;;5002682;28;21037;-65
2023/09/11 09:19:20;;;;;;;14.82;7.40;;;22.10;99.90;;;;;;5044419;28;20314;-65
2023/09/11 09:22:10;;;;;;;7.75;6.13;;;22.20;99.90;;;;;;5037731;28;20574;-64
2023/09/11 09:24:38;;;;;;;12.23;7.40;;;22.20;99.90;;;;;;5037816;28;20211;-65
2023/09/11 09:27:07;;;;;;;13.43;7.30;;;22.30;99.90;;;;;;5043742;28;20197;-65
2023/09/11 09:29:35;;;;;;;10.57;6.85;;;22.30;99.90;;;;;;5042921;28;20289;-65
2023/09/11 09:32:03;;;;;;;11.13;7.63;;;22.40;99.90;;;;;;5007342;28;20209;-65
2023/09/11 09:34:32;;;;;;;15.15;7.45;;;22.90;99.90;;;;;;5048162;28;20201;-65
2023/09/11 09:36:59;;;;;;;14.02;7.60;;;22.50;99.90;;;;;;5025193;28;20567;-65
2023/09/11 09:39:28;;;;;;;13.00;7.30;;;22.60;99.90;;;;;;5033575;28;20448;-65
2023/09/11 09:41:55;;;;;;;14.27;7.40;;;22.60;99.90;;;;;;5042159;28;20201;-65
2023/09/11 09:44:30;;;;;;;13.40;7.55;;;22.60;99.90;;;;;;5041208;28;20197;-65
2023/09/11 09:46:57;;;;;;;16.23;7.32;;;22.80;99.90;;;;;;5005411;28;20251;-65
2023/09/11 09:49:25;;;;;;;14.00;7.20;;;22.80;99.90;;;;;;5044892;28;20428;-65
2023/09/11 09:51:53;;;;;;;9.65;6.65;;;22.90;99.90;;;;;;5036450;28;20200;-65
2023/09/11 09:54:20;;;;;;;13.73;6.85;;;23.00;99.90;;;;;;5034607;28;20426;-65
2023/09/11 09:56:48;;;;;;;13.32;6.68;;;23.10;99.90;;;;;;5044329;28;20193;-65
2023/09/11 09:59:23;;;;;;;17.85;7.55;;;23.10;99.90;;;;;;5038975;28;20204;-65
2023/09/11 10:01:51;;;;;;;11.23;7.72;;;23.20;99.90;;;;;;4992670;28;21959;-65
2023/09/11 10:04:20;;;;;;;20.17;7.50;;;23.20;99.90;;;;;;5043823;28;20222;-65
2023/09/11 10:06:54;;;;;;;19.80;7.28;;;23.20;99.90;;;;;;5018612;28;20615;-65
2023/09/11 10:09:21;;;;;;;9.90;6.78;;;23.30;99.90;;;;;;5028057;28;20236;-64
2023/09/11 10:11:51;;;;;;;10.80;7.07;;;23.40;99.90;;;;;;5030775;28;20559;-64
2023/09/11 10:14:19;;;;;;;15.10;7.60;;;23.40;99.90;;;;;;5036524;28;20225;-64
2023/09/11 10:16:47;;;;;;;11.85;6.70;;;23.50;99.90;;;;;;5000117;28;21645;-64
2023/09/11 10:19:16;;;;;;;13.95;7.07;;;23.50;99.90;;;;;;5034977;28;20221;-64
2023/09/11 10:21:42;;;;;;;21.52;7.72;;;23.60;99.90;;;;;;5023537;28;20362;-64
2023/09/11 10:24:11;;;;;;;17.30;7.05;;;23.70;99.90;;;;;;5017875;28;20221;-65
2023/09/11 10:26:47;;;;;;;16.38;7.13;;;23.70;99.90;;;;;;5031207;28;20192;-64
2023/09/11 10:29:21;;;;;;;15.00;6.03;;;23.80;99.90;;;;;;5025789;28;20701;-65
2023/09/11 10:31:57;;;;;;;11.38;6.57;;;23.80;99.90;;;;;;5040159;28;20204;-64
2023/09/11 10:34:26;;;;;;;11.20;6.10;;;24.00;99.90;;;;;;4995918;28;20487;-65
2023/09/11 10:36:57;;;;;;;11.52;7.30;;;23.90;99.90;;;;;;5040641;28;20189;-65
2023/09/11 10:39:24;;;;;;;11.93;7.10;;;24.00;99.90;;;;;;5012661;28;20704;-65
2023/09/11 10:41:52;;;;;;;11.98;7.03;;;24.00;99.90;;;;;;5033600;28;20240;-65
2023/09/11 10:44:18;;;;;;;8.25;6.55;;;24.10;99.90;;;;;;5039101;28;20200;-64
2023/09/11 10:46:51;;;;;;;16.20;7.28;;;24.20;99.90;;;;;;5018781;28;20225;-64
2023/09/11 10:49:20;;;;;;;12.75;6.55;;;24.20;99.90;;;;;;5002434;28;20460;-64
2023/09/11 10:51:49;;;;;;;15.75;7.22;;;24.20;99.90;;;;;;5039447;28;20204;-64
2023/09/11 10:54:17;;;;;;;13.63;7.43;;;24.30;99.90;;;;;;5019670;28;20208;-65
2023/09/11 10:56:44;;;;;;;16.63;6.65;;;24.40;99.90;;;;;;5033913;28;20196;-65
2023/09/11 10:59:11;;;;;;;17.52;6.53;;;24.50;99.90;;;;;;5038521;28;20228;-65
2023/09/11 11:01:38;;;;;;;9.52;6.50;;;24.60;99.90;;;;;;5040681;28;20225;-64
2023/09/11 11:04:06;;;;;;;9.93;6.20;;;24.50;99.90;;;;;;5008582;28;20209;-64
2023/09/11 11:06:33;;;;;;;10.70;6.40;;;24.60;99.90;;;;;;5041908;28;20203;-64
2023/09/11 11:09:02;;;;;;;11.15;6.22;;;24.60;99.90;;;;;;5029371;28;20200;-65
2023/09/11 11:11:32;;;;;;;8.75;5.78;;;24.70;99.90;;;;;;5021245;28;21252;-64
2023/09/11 11:14:13;;;;;;;13.23;6.80;;;24.80;99.90;;;;;;5038196;28;20202;-65
2023/09/11 11:16:53;;;;;;;17.23;6.72;;;24.80;99.90;;;;;;5039413;28;20295;-65
2023/09/11 11:19:25;;;;;;;16.17;6.72;;;24.80;99.90;;;;;;4992068;28;20214;-64
2023/09/11 11:21:52;;;;;;;10.93;6.72;;;24.80;99.90;;;;;;4998222;28;20240;-64
2023/09/11 11:24:23;;;;;;;13.07;6.70;;;24.90;99.90;;;;;;5019427;28;20224;-65
2023/09/11 11:26:49;;;;;;;9.57;5.60;;;24.90;99.90;;;;;;5010725;28;20206;-64
2023/09/11 11:29:17;;;;;;;10.15;6.53;;;25.10;99.90;;;;;;5034324;28;20235;-65
2023/09/11 11:31:44;;;;;;;10.50;6.45;;;25.00;99.90;;;;;;5043080;28;20292;-65
2023/09/11 11:34:12;;;;;;;12.25;6.60;;;25.00;99.90;;;;;;4999255;28;20223;-66
2023/09/11 11:36:42;;;;;;;14.43;6.53;;;25.50;99.90;;;;;;5024597;28;20578;-66
2023/09/11 11:39:10;;;;;;;10.48;5.97;;;25.00;99.90;;;;;;5020568;28;20240;-65
2023/09/11 11:41:39;;;;;;;12.63;6.28;;;25.10;99.90;;;;;;5013575;28;20252;-65
2023/09/11 11:44:06;;;;;;;9.98;6.10;;;25.20;99.90;;;;;;5029271;28;20741;-65
2023/09/11 11:46:33;;;;;;;13.60;6.65;;;25.20;99.90;;;;;;5036224;28;20217;-65
2023/09/11 11:49:00;;;;;;;15.35;6.93;;;25.20;99.90;;;;;;5038053;28;20920;-65
2023/09/11 11:51:28;;;;;;;13.40;6.57;;;25.30;99.90;;;;;;5006271;28;20959;-65
2023/09/11 11:53:55;;;;;;;9.32;6.00;;;25.30;99.90;;;;;;5042661;28;20211;-65
2023/09/11 11:56:22;;;;;;;11.70;5.57;;;25.40;99.90;;;;;;5032484;28;20224;-65
2023/09/11 11:58:50;;;;;;;8.32;5.50;;;25.50;99.90;;;;;;5034950;28;20204;-65
2023/09/11 12:01:17;;;;;;;11.88;6.15;;;25.50;99.90;;;;;;5044130;28;20233;-65
2023/09/11 12:03:49;;;;;;;10.75;5.60;;;25.50;99.90;;;;;;5039972;28;20193;-65
2023/09/11 12:06:16;;;;;;;17.05;6.00;;;25.60;99.90;;;;;;5001095;28;20217;-65
2023/09/11 12:08:45;;;;;;;17.23;6.40;;;25.60;99.90;;;;;;5043705;28;20563;-65
2023/09/11 12:11:12;;;;;;;10.07;6.22;;;24.30;99.90;;;;;;5049586;28;20224;-65
2023/09/11 12:13:39;;;;;;;10.07;5.82;;;25.70;99.90;;;;;;5024719;28;20224;-65
2023/09/11 12:16:07;;;;;;;11.25;5.70;;;25.80;99.90;;;;;;5041884;28;20675;-65
2023/09/11 12:18:37;;;;;;;16.23;6.13;;;25.80;99.90;;;;;;5049931;28;20215;-65
2023/09/11 12:21:06;;;;;;;8.07;6.20;;;25.80;99.90;;;;;;5011711;28;20254;-65
2023/09/11 12:23:33;;;;;;;11.75;6.28;;;25.80;99.90;;;;;;5052235;28;20200;-65
2023/09/11 12:26:02;;;;;;;11.00;6.05;;;26.10;99.90;;;;;;5045060;28;20201;-65
2023/09/11 12:28:29;;;;;;;16.40;5.90;;;25.90;99.90;;;;;;5039649;28;20243;-65
2023/09/11 12:30:56;;;;;;;13.05;5.75;;;25.90;99.90;;;;;;5035339;28;20197;-65
2023/09/11 12:33:26;;;;;;;13.65;6.18;;;25.90;99.90;;;;;;5051667;28;20217;-65
2023/09/11 12:35:54;;;;;;;9.57;5.55;;;26.00;99.90;;;;;;5046950;28;20200;-65
2023/09/11 12:38:21;;;;;;;12.27;5.55;;;26.00;99.90;;;;;;4991496;28;20228;-65